Time;durP1;ratioP1;P1;durP2;ratioP2;P2;SDS_P1;SDS_P2;PMS_P1;PMS_P2;Temp;Humidity;BMP_temperature;BMP_pressure;BME280_temperature;BME280_humidity;BME280_pressure;Samples;Min_cycle;Max_cycle;Signal;HPM_P1;HPM_P2
2022/10/12 06:39:03;;;;;;;20.83;12.98;;;;;;;9.69;100.00;99701.25;5085453;27;20430;-76
2022/10/12 06:41:29;;;;;;;21.42;14.30;;;;;;;9.81;100.00;99696.38;5089191;28;20135;-77
2022/10/12 06:43:56;;;;;;;26.02;15.35;;;;;;;9.79;100.00;99670.41;5087177;28;20044;-77
2022/10/12 06:46:22;;;;;;;21.90;14.25;;;;;;;10.00;100.00;99689.78;5084799;28;20143;-77
2022/10/12 06:48:49;;;;;;;22.52;13.15;;;;;;;10.17;100.00;99692.50;5083895;28;20063;-77
2022/10/12 06:51:16;;;;;;;22.00;12.48;;;;;;;10.20;100.00;99689.44;5087561;28;20076;-77
2022/10/12 06:53:43;;;;;;;17.70;11.35;;;;;;;10.25;100.00;99690.66;5087364;28;20430;-77
2022/10/12 06:56:11;;;;;;;20.42;10.68;;;;;;;10.28;100.00;99705.75;5087893;28;20066;-77
2022/10/12 06:58:39;;;;;;;18.55;10.65;;;;;;;10.44;100.00;99700.34;5087471;28;20040;-77
2022/10/12 07:01:07;;;;;;;20.02;11.77;;;;;;;10.34;100.00;99679.78;5084211;28;20088;-77
2022/10/12 07:03:34;;;;;;;16.77;10.52;;;;;;;10.36;100.00;99685.94;5066753;28;20049;-77
2022/10/12 07:06:08;;;;;;;19.38;10.75;;;;;;;10.41;100.00;99678.09;5067151;28;20067;-77
2022/10/12 07:08:34;;;;;;;19.85;10.35;;;;;;;10.55;100.00;99677.41;5067614;28;20132;-77
2022/10/12 07:11:01;;;;;;;18.30;10.15;;;;;;;10.62;100.00;99696.59;5067047;28;20518;-77
2022/10/12 07:13:29;;;;;;;16.05;9.52;;;;;;;10.51;100.00;99683.34;5064562;28;20044;-77
2022/10/12 07:15:56;;;;;;;18.73;10.05;;;;;;;10.73;100.00;99698.94;5066659;28;20127;-77
2022/10/12 07:18:22;;;;;;;19.23;9.48;;;;;;;10.82;100.00;99693.50;5066815;28;20049;-77
2022/10/12 07:20:49;;;;;;;19.02;10.27;;;;;;;10.90;100.00;99688.03;5065437;28;20052;-77
2022/10/12 07:23:16;;;;;;;19.95;10.35;;;;;;;10.97;100.00;99686.31;5065939;28;20053;-77
2022/10/12 07:25:48;;;;;;;17.45;10.32;;;;;;;10.96;100.00;99680.03;5066455;28;20048;-77
2022/10/12 07:28:15;;;;;;;19.63;9.13;;;;;;;11.10;100.00;99704.81;5066841;28;20404;-77
2022/10/12 07:30:43;;;;;;;19.35;10.57;;;;;;;11.14;100.00;99693.41;5065943;28;20059;-77
2022/10/12 07:33:09;;;;;;;18.33;9.80;;;;;;;11.22;100.00;99684.34;5065775;28;20060;-77
2022/10/12 07:35:36;;;;;;;14.38;9.45;;;;;;;11.40;100.00;99691.44;5066685;28;20051;-77
2022/10/12 07:38:03;;;;;;;13.57;9.85;;;;;;;11.23;100.00;99677.91;5064969;28;20049;-77
2022/10/12 07:40:30;;;;;;;16.50;10.43;;;;;;;11.26;100.00;99685.72;5066741;28;20501;-77
2022/10/12 07:42:57;;;;;;;16.88;10.82;;;;;;;11.43;100.00;99689.19;5065798;28;20052;-77
2022/10/12 07:45:24;;;;;;;16.65;9.77;;;;;;;11.62;100.00;99698.81;5064957;28;20055;-77
2022/10/12 07:47:52;;;;;;;20.85;10.18;;;;;;;11.67;100.00;99671.88;5065912;28;20052;-77
2022/10/12 07:50:18;;;;;;;14.90;10.32;;;;;;;11.78;100.00;99688.84;5052159;28;20424;-77
2022/10/12 07:52:45;;;;;;;15.68;9.95;;;;;;;11.82;100.00;99691.00;5052498;28;20048;-77
2022/10/12 07:55:12;;;;;;;19.60;10.00;;;;;;;11.94;100.00;99683.31;5052797;28;20516;-77
2022/10/12 07:57:38;;;;;;;25.65;10.40;;;;;;;11.91;100.00;99667.28;5052963;28;20045;-77
2022/10/12 08:00:06;;;;;;;16.13;9.57;;;;;;;12.01;100.00;99678.84;5053164;28;20059;-77
2022/10/12 08:02:34;;;;;;;13.45;10.00;;;;;;;12.38;100.00;99698.97;5052102;28;20049;-77
2022/10/12 08:05:02;;;;;;;24.63;9.57;;;;;;;12.49;100.00;99686.75;5053085;28;20098;-77
2022/10/12 08:07:29;;;;;;;14.82;9.55;;;;;;;12.66;100.00;99698.38;5051166;28;20403;-77
2022/10/12 08:09:55;;;;;;;22.55;9.30;;;;;;;12.56;100.00;99679.53;5052776;28;20056;-77
2022/10/12 08:12:22;;;;;;;16.70;9.05;;;;;;;12.69;100.00;99687.09;5051953;28;20055;-77
2022/10/12 08:14:49;;;;;;;14.20;10.23;;;;;;;12.68;100.00;99685.41;5052839;28;20415;-77
2022/10/12 08:17:15;;;;;;;14.63;9.98;;;;;;;12.83;100.00;99698.22;5052531;28;20048;-77
2022/10/12 08:19:42;;;;;;;13.52;10.07;;;;;;;12.93;100.00;99690.59;5053117;28;20131;-77
2022/10/12 08:22:11;;;;;;;19.35;10.98;;;;;;;12.87;100.00;99677.69;5051895;28;20136;-77
2022/10/12 08:24:37;;;;;;;20.83;10.43;;;;;;;13.02;100.00;99707.72;5051584;28;20037;-77
2022/10/12 08:27:04;;;;;;;20.58;11.45;;;;;;;13.08;100.00;99699.66;5052073;28;20049;-77
2022/10/12 08:29:30;;;;;;;19.67;10.32;;;;;;;13.16;100.00;99676.00;5052303;28;20136;-77
2022/10/12 08:31:57;;;;;;;16.67;10.45;;;;;;;13.24;100.00;99709.50;5051291;28;20052;-77
2022/10/12 08:34:24;;;;;;;15.07;10.38;;;;;;;13.15;100.00;99677.06;5052232;28;20045;-77
2022/10/12 08:36:51;;;;;;;18.40;10.43;;;;;;;13.25;100.00;99685.81;5052314;28;20178;-77
2022/10/12 08:39:18;;;;;;;18.95;11.15;;;;;;;13.52;100.00;99702.53;5050996;28;20087;-77
2022/10/12 08:41:56;;;;;;;18.30;11.60;;;;;;;13.70;100.00;99707.59;5049374;28;20060;-77
2022/10/12 08:44:59;;;;;;;22.95;12.93;;;;;;;13.59;100.00;99681.63;5047943;28;20051;-77
2022/10/12 08:47:36;;;;;;;25.33;13.95;;;;;;;13.88;100.00;99691.63;5050871;28;20579;-77
2022/10/12 08:50:04;;;;;;;27.95;15.20;;;;;;;13.89;100.00;99676.91;5052218;28;20052;-77
2022/10/12 08:52:37;;;;;;;30.70;15.18;;;;;;;13.92;100.00;99673.78;5051245;28;20052;-77
2022/10/12 08:55:19;;;;;;;28.88;16.08;;;;;;;14.10;100.00;99678.81;5052339;28;20053;-77
2022/10/12 08:57:45;;;;;;;25.58;15.50;;;;;;;14.11;100.00;99666.84;5052039;28;20052;-77
2022/10/12 09:00:14;;;;;;;30.80;16.17;;;;;;;14.16;100.00;99678.03;5051041;28;20049;-77
2022/10/12 09:02:56;;;;;;;37.00;15.15;;;;;;;14.24;100.00;99679.81;5049446;28;20045;-77
2022/10/12 09:05:27;;;;;;;22.40;14.18;;;;;;;14.14;100.00;99660.97;5032226;28;20140;-77
2022/10/12 09:08:00;;;;;;;28.13;15.07;;;;;;;14.20;100.00;99666.72;5031958;28;20056;-77
2022/10/12 09:10:39;;;;;;;34.20;14.60;;;;;;;14.11;100.00;99677.78;5032089;28;20053;-77
2022/10/12 09:13:14;;;;;;;27.55;14.73;;;;;;;13.98;100.00;99656.66;5030995;28;20132;-77
2022/10/12 09:15:48;;;;;;;25.35;13.30;;;;;;;14.18;100.00;99660.59;5045064;28;20059;-77
2022/10/12 09:18:20;;;;;;;26.00;12.80;;;;;;;14.25;100.00;99662.34;5050163;28;20060;-77
2022/10/12 09:20:48;;;;;;;28.02;13.18;;;;;;;14.26;100.00;99660.47;5051749;28;20057;-77
2022/10/12 09:23:24;;;;;;;27.23;13.35;;;;;;;14.42;100.00;99673.00;5050775;28;20063;-77
2022/10/12 09:25:54;;;;;;;33.65;14.63;;;;;;;14.54;100.00;99687.81;5051613;28;20048;-77
2022/10/12 09:28:27;;;;;;;26.83;13.90;;;;;;;14.31;100.00;99661.53;5051324;28;20052;-77
2022/10/12 09:31:06;;;;;;;26.95;12.95;;;;;;;14.32;100.00;99657.78;5050328;28;20053;-77
2022/10/12 09:33:39;;;;;;;25.30;12.40;;;;;;;14.48;100.00;99658.53;5049556;28;20118;-77
2022/10/12 09:36:06;;;;;;;25.08;13.38;;;;;;;14.61;100.00;99690.66;5050999;28;20059;-77
2022/10/12 09:38:32;;;;;;;20.40;12.63;;;;;;;14.74;100.00;99682.56;5051063;28;20045;-77
2022/10/12 09:41:00;;;;;;;24.85;13.10;;;;;;;14.91;100.00;99685.00;5051171;28;20052;-77
2022/10/12 09:43:27;;;;;;;20.85;12.63;;;;;;;15.08;100.00;99696.47;5050375;28;20535;-77
2022/10/12 09:45:54;;;;;;;24.85;11.77;;;;;;;15.14;100.00;99680.06;5051265;28;20151;-77
2022/10/12 09:48:23;;;;;;;20.17;11.20;;;;;;;15.42;100.00;99687.38;5050851;28;20055;-77
2022/10/12 09:50:53;;;;;;;24.57;14.17;;;;;;;15.62;100.00;99672.91;5049900;28;20052;-77
2022/10/12 09:53:29;;;;;;;20.00;10.65;;;;;;;15.85;100.00;99686.28;5048734;28;20045;-78
2022/10/12 09:56:03;;;;;;;21.33;10.75;;;;;;;15.82;100.00;99695.78;5051121;28;20045;-77
2022/10/12 09:58:32;;;;;;;22.92;11.10;;;;;;;15.49;100.00;99680.03;5050882;28;20411;-77
2022/10/12 10:01:18;;;;;;;21.63;11.38;;;;;;;15.43;100.00;99702.78;5050886;28;20049;-77
2022/10/12 10:03:45;;;;;;;22.05;11.25;;;;;;;15.11;100.00;99674.97;5050382;28;20056;-77
2022/10/12 10:06:14;;;;;;;17.40;10.32;;;;;;;14.95;100.00;99678.91;5050765;28;20048;-77
2022/10/12 10:08:42;;;;;;;19.40;9.98;;;;;;;15.22;100.00;99699.06;5049621;28;20127;-77
2022/10/12 10:11:16;;;;;;;19.17;10.75;;;;;;;15.35;100.00;99690.06;5050314;28;20063;-77
2022/10/12 10:13:48;;;;;;;23.75;11.05;;;;;;;15.20;100.00;99671.06;5050042;28;20496;-77
2022/10/12 10:16:16;;;;;;;18.95;10.50;;;;;;;15.20;100.00;99687.50;5050556;28;20052;-77
2022/10/12 10:18:47;;;;;;;19.33;11.00;;;;;;;15.32;100.00;99673.19;5050288;28;20488;-77
2022/10/12 10:21:16;;;;;;;22.83;10.25;;;;;;;15.30;100.00;99669.84;5050744;28;20052;-77
2022/10/12 10:23:49;;;;;;;21.50;11.33;;;;;;;15.29;100.00;99679.09;5049979;28;20055;-77
2022/10/12 10:26:19;;;;;;;20.50;9.15;;;;;;;15.20;100.00;99679.28;5048956;28;20338;-77
2022/10/12 10:28:47;;;;;;;20.85;10.38;;;;;;;15.32;100.00;99679.50;5050424;28;20404;-77
2022/10/12 10:31:22;;;;;;;15.23;9.85;;;;;;;15.40;100.00;99681.22;5048920;28;20055;-77
2022/10/12 10:34:23;;;;;;;17.20;10.43;;;;;;;15.45;100.00;99683.38;5049944;28;20056;-77
2022/10/12 10:36:52;;;;;;;19.83;11.10;;;;;;;15.40;100.00;99668.41;5042244;28;20053;-77
2022/10/12 10:39:25;;;;;;;17.92;10.00;;;;;;;15.69;100.00;99688.31;5029868;28;20136;-77
2022/10/12 10:41:54;;;;;;;21.75;9.60;;;;;;;15.87;100.00;99670.50;5038370;28;20149;-77
2022/10/12 10:44:29;;;;;;;16.52;8.88;;;;;;;16.00;99.05;99699.81;5049648;28;20053;-77
2022/10/12 10:46:57;;;;;;;15.68;8.50;;;;;;;15.79;95.05;99670.66;5050549;28;20057;-77
2022/10/12 10:49:33;;;;;;;18.77;8.98;;;;;;;15.95;95.68;99680.41;5049817;28;20071;-77
2022/10/12 10:52:02;;;;;;;15.73;9.00;;;;;;;15.97;94.98;99681.03;5050215;28;20051;-77
2022/10/12 10:54:31;;;;;;;17.73;10.13;;;;;;;15.96;93.08;99698.53;5050152;28;20053;-77
2022/10/12 10:57:03;;;;;;;20.63;9.68;;;;;;;16.00;93.02;99688.84;5050298;28;20055;-77
2022/10/12 10:59:40;;;;;;;14.30;9.00;;;;;;;16.08;93.14;99677.72;5048992;28;20037;-77
2022/10/12 11:02:16;;;;;;;12.65;7.80;;;;;;;16.20;93.48;99687.00;5049161;28;20075;-77
2022/10/12 11:04:47;;;;;;;12.90;8.23;;;;;;;16.07;92.31;99685.06;5050272;28;20045;-77
2022/10/12 11:07:21;;;;;;;15.55;8.60;;;;;;;16.10;95.31;99676.44;5050180;28;20220;-76
2022/10/12 11:09:54;;;;;;;14.27;8.80;;;;;;;16.01;94.18;99674.09;5050039;28;20136;-76
2022/10/12 11:12:28;;;;;;;15.88;8.32;;;;;;;16.10;93.26;99670.94;5049490;28;20053;-76
2022/10/12 11:14:58;;;;;;;20.50;9.20;;;;;;;16.15;95.31;99681.28;5048897;28;20104;-76
2022/10/12 11:17:28;;;;;;;;;;;;;;;16.31;96.01;99688.28;5050460;28;20041;-76
2022/10/12 11:20:01;;;;;;;23.95;8.80;;;;;;;16.03;92.17;99678.34;5050281;28;19921;-77
2022/10/12 11:22:32;;;;;;;21.45;9.75;;;;;;;15.96;94.04;99674.72;5049408;28;20053;-76
2022/10/12 11:25:05;;;;;;;19.10;8.18;;;;;;;15.71;94.56;99661.53;5051999;28;20053;-77
2022/10/12 11:27:37;;;;;;;15.52;8.25;;;;;;;15.97;98.62;99684.63;5053979;28;20411;-76
2022/10/12 11:30:12;;;;;;;16.67;9.10;;;;;;;15.99;98.74;99663.34;5052307;28;20133;-77
2022/10/12 11:32:42;;;;;;;15.93;8.88;;;;;;;16.32;94.99;99676.25;5047872;28;20041;-76
2022/10/12 11:35:15;;;;;;;19.25;9.13;;;;;;;16.34;91.50;99665.91;5053270;28;20132;-76
2022/10/12 11:37:47;;;;;;;18.10;8.63;;;;;;;16.58;91.74;99677.31;5053857;28;20045;-76
2022/10/12 11:40:19;;;;;;;13.45;7.95;;;;;;;16.57;92.38;99670.97;5053332;28;20404;-76
2022/10/12 11:42:49;;;;;;;13.38;8.35;;;;;;;16.48;87.64;99680.47;5053033;28;20127;-76
2022/10/12 11:45:23;;;;;;;15.27;8.40;;;;;;;16.54;91.45;99674.13;5053069;28;20059;-76
2022/10/12 11:47:56;;;;;;;20.00;8.10;;;;;;;16.49;90.49;99642.91;5052613;28;20412;-76
2022/10/12 11:50:30;;;;;;;15.48;7.47;;;;;;;16.72;88.31;99651.53;5046018;28;20053;-76
2022/10/12 11:53:00;;;;;;;14.48;8.60;;;;;;;16.88;89.26;99664.00;5052654;28;20560;-76
2022/10/12 11:55:44;;;;;;;17.52;8.35;;;;;;;16.72;86.23;99658.94;5053276;28;20514;-76
2022/10/12 11:58:18;;;;;;;12.88;7.05;;;;;;;16.70;90.09;99647.31;5053144;28;20048;-76
2022/10/12 12:01:03;;;;;;;13.55;7.95;;;;;;;16.86;88.13;99657.00;5053293;28;20136;-76
2022/10/12 12:03:38;;;;;;;11.50;7.22;;;;;;;16.86;87.60;99646.00;5051021;28;20052;-76
2022/10/12 12:06:37;;;;;;;16.52;7.40;;;;;;;16.86;86.87;99641.38;5051126;28;20067;-76
2022/10/12 12:09:18;;;;;;;13.53;7.33;;;;;;;16.76;83.74;99635.50;5037871;28;20045;-76
2022/10/12 12:11:45;;;;;;;19.00;7.97;;;;;;;17.04;86.98;99654.47;5053138;28;20286;-76
2022/10/12 12:15:00;;;;;;;14.02;7.60;;;;;;;16.91;86.00;99651.75;5052143;28;20057;-76
2022/10/12 12:17:30;;;;;;;13.38;6.47;;;;;;;17.01;84.97;99643.88;4991323;28;20054;-77
2022/10/12 12:19:57;;;;;;;17.48;8.38;;;;;;;16.84;82.86;99624.25;5035157;28;20227;-77
2022/10/12 12:22:42;;;;;;;15.20;8.05;;;;;;;16.96;84.22;99611.59;5050869;28;20432;-77
2022/10/12 12:25:29;;;;;;;16.08;7.40;;;;;;;17.17;83.65;99631.59;5037271;28;20400;-77
2022/10/12 12:27:59;;;;;;;10.73;6.55;;;;;;;17.06;85.62;99618.56;5052678;28;20041;-77
2022/10/12 12:30:39;;;;;;;17.08;7.80;;;;;;;16.86;81.86;99618.56;5051034;28;20056;-77
2022/10/12 12:33:27;;;;;;;12.80;7.07;;;;;;;17.15;83.96;99620.81;5051631;28;20437;-77
2022/10/12 12:35:56;;;;;;;15.23;6.85;;;;;;;17.13;83.71;99608.38;5032627;28;20411;-77
2022/10/12 12:38:30;;;;;;;16.67;7.60;;;;;;;17.12;83.38;99610.28;5032398;28;20045;-77
2022/10/12 12:41:00;;;;;;;11.40;6.75;;;;;;;17.28;82.47;99594.34;5034067;28;20154;-77
2022/10/12 12:43:55;;;;;;;19.13;8.52;;;;;;;17.56;80.21;99627.00;5051563;28;20115;-77
2022/10/12 12:46:24;;;;;;;17.42;7.25;;;;;;;17.56;80.94;99613.25;5050580;28;20053;-77
2022/10/12 12:49:26;;;;;;;12.27;7.30;;;;;;;17.56;81.05;99606.91;5052278;28;20048;-77
2022/10/12 12:51:56;;;;;;;17.05;8.48;;;;;;;17.48;81.40;99599.78;5052207;28;20055;-77
2022/10/12 12:54:23;;;;;;;14.80;7.82;;;;;;;17.75;82.97;99607.84;5051740;28;20139;-77
2022/10/12 12:57:03;;;;;;;21.60;7.55;;;;;;;17.67;77.42;99604.31;5051900;28;20059;-77
2022/10/12 13:00:04;;;;;;;13.50;7.53;;;;;;;17.50;80.22;99623.22;5051863;28;20052;-77
2022/10/12 13:02:55;;;;;;;16.25;7.30;;;;;;;17.79;80.74;99620.09;5047971;28;20103;-77
2022/10/12 13:06:04;;;;;;;10.90;7.28;;;;;;;17.45;76.37;99617.53;5044308;28;20057;-77
2022/10/12 13:08:48;;;;;;;14.57;7.00;;;;;;;17.27;77.81;99600.94;5008367;28;20127;-77
2022/10/12 13:11:39;;;;;;;13.52;6.88;;;;;;;17.63;78.05;99582.97;5051919;28;20057;-77
2022/10/12 13:14:18;;;;;;;13.00;6.50;;;;;;;17.74;79.07;99600.69;5051114;28;20049;-77
2022/10/12 13:17:02;;;;;;;15.80;7.45;;;;;;;17.96;78.99;99588.28;5050406;28;20127;-77
2022/10/12 13:19:32;;;;;;;13.35;6.80;;;;;;;18.06;80.35;99597.94;5045016;28;20049;-77
2022/10/12 13:22:04;;;;;;;13.82;6.63;;;;;;;18.16;79.73;99574.38;5051307;28;20276;-77
2022/10/12 13:24:39;;;;;;;15.13;6.82;;;;;;;18.21;74.76;99587.44;5051714;28;20118;-77
2022/10/12 13:27:22;;;;;;;13.57;6.80;;;;;;;17.75;75.96;99592.22;5051303;28;20488;-77
2022/10/12 13:29:56;;;;;;;15.40;6.47;;;;;;;17.65;77.03;99602.84;5051488;28;20059;-77
2022/10/12 13:32:33;;;;;;;14.35;6.63;;;;;;;17.37;76.94;99578.47;5049060;28;20049;-77
2022/10/12 13:35:06;;;;;;;10.75;6.45;;;;;;;17.56;79.28;99591.25;5049635;28;20059;-77
2022/10/12 13:37:33;;;;;;;13.82;6.50;;;;;;;17.26;82.55;99569.84;5051174;28;20069;-77
2022/10/12 13:40:01;;;;;;;10.57;6.53;;;;;;;17.55;82.23;99591.47;5051246;28;20132;-77
2022/10/12 13:42:31;;;;;;;16.73;8.07;;;;;;;17.73;79.48;99569.56;5050358;28;20080;-77
2022/10/12 13:44:58;;;;;;;13.40;7.15;;;;;;;17.72;79.40;99591.78;5031151;28;20128;-77
2022/10/12 13:47:28;;;;;;;37.22;9.00;;;;;;;17.69;80.89;99579.34;5030522;28;20144;-77
2022/10/12 13:49:55;;;;;;;13.95;7.22;;;;;;;17.39;79.46;99565.34;5031174;28;20152;-77
2022/10/12 13:52:26;;;;;;;15.63;7.00;;;;;;;17.56;81.56;99574.75;5046986;28;20076;-77
2022/10/12 13:54:54;;;;;;;14.10;6.47;;;;;;;17.48;78.97;99573.13;5051014;28;20404;-78
2022/10/12 13:57:27;;;;;;;22.25;7.00;;;;;;;17.55;76.71;99559.31;5050521;28;20416;-78
2022/10/12 13:59:57;;;;;;;15.85;6.80;;;;;;;17.78;77.83;99583.50;5051099;28;20079;-77
2022/10/12 14:02:26;;;;;;;17.73;6.38;;;;;;;17.82;79.58;99570.16;5050083;28;20106;-77
2022/10/12 14:04:54;;;;;;;11.65;6.55;;;;;;;18.01;77.64;99577.44;5050889;28;20056;-77
2022/10/12 14:07:24;;;;;;;14.18;7.05;;;;;;;18.13;74.36;99560.22;5048892;28;20067;-77
2022/10/12 14:09:55;;;;;;;11.88;5.40;;;;;;;17.97;74.41;99554.19;5050706;28;20511;-77
2022/10/12 14:12:24;;;;;;;11.48;5.60;;;;;;;17.95;76.27;99577.50;5049997;28;20052;-77
2022/10/12 14:14:51;;;;;;;15.70;6.35;;;;;;;18.02;77.03;99561.78;5050828;28;20056;-77
2022/10/12 14:17:20;;;;;;;13.07;6.15;;;;;;;18.12;76.21;99551.09;5050575;28;20132;-77
2022/10/12 14:19:50;;;;;;;11.80;6.82;;;;;;;18.02;73.37;99559.03;5050687;28;20144;-77
2022/10/12 14:22:20;;;;;;;;;;;;;;;18.01;74.95;99560.94;5048583;28;20053;-77
2022/10/12 14:24:47;;;;;;;13.25;6.20;;;;;;;18.18;76.40;99554.88;5050810;28;19925;-77
2022/10/12 14:27:28;;;;;;;12.70;6.28;;;;;;;18.18;77.87;99555.72;5050332;28;20471;-77
2022/10/12 14:29:57;;;;;;;10.93;6.47;;;;;;;17.86;77.01;99560.41;5050596;28;20092;-77
2022/10/12 14:32:45;;;;;;;12.60;5.85;;;;;;;17.58;77.41;99566.28;5047873;28;20057;-77
2022/10/12 14:35:21;;;;;;;13.93;5.57;;;;;;;17.48;78.00;99540.13;5046839;28;20483;-77
2022/10/12 14:37:49;;;;;;;22.55;8.73;;;;;;;17.19;79.50;99560.78;5046432;28;20080;-77
2022/10/12 14:40:38;;;;;;;14.82;6.93;;;;;;;17.38;78.79;99570.00;5049943;28;20052;-77
2022/10/12 14:43:22;;;;;;;13.95;7.53;;;;;;;17.60;76.38;99545.78;5046690;28;20489;-77
2022/10/12 14:45:50;;;;;;;11.38;6.25;;;;;;;17.88;73.84;99533.50;5050772;28;20122;-77
2022/10/12 14:48:21;;;;;;;20.33;7.57;;;;;;;17.95;74.88;99558.25;5050220;28;20128;-77
2022/10/12 14:50:48;;;;;;;13.50;7.00;;;;;;;18.07;76.30;99555.63;5050957;28;20084;-77
2022/10/12 14:53:15;;;;;;;12.95;6.28;;;;;;;17.98;76.90;99544.88;5049622;28;20048;-77
2022/10/12 14:55:43;;;;;;;13.48;6.55;;;;;;;17.92;76.86;99537.53;5048631;28;20047;-77
2022/10/12 14:58:14;;;;;;;13.48;6.68;;;;;;;17.90;77.03;99550.69;5049832;28;20069;-77
2022/10/12 15:00:42;;;;;;;10.23;6.63;;;;;;;17.94;76.98;99540.88;5054130;28;20128;-77
2022/10/12 15:03:08;;;;;;;14.82;6.43;;;;;;;17.95;76.74;99530.75;5053410;28;20045;-77
2022/10/12 15:05:35;;;;;;;11.15;6.55;;;;;;;17.71;76.84;99526.88;5054455;28;20076;-77
2022/10/12 15:08:06;;;;;;;12.73;6.47;;;;;;;17.59;78.76;99535.00;5053967;28;20500;-77
2022/10/12 15:10:32;;;;;;;14.25;6.43;;;;;;;17.88;76.77;99555.50;5054350;28;20041;-77
2022/10/12 15:12:59;;;;;;;19.48;8.10;;;;;;;17.73;76.06;99533.00;5052593;28;20063;-77
2022/10/12 15:15:31;;;;;;;13.00;6.57;;;;;;;17.78;76.57;99542.28;5054180;28;20047;-77
2022/10/12 15:17:58;;;;;;;10.65;5.75;;;;;;;17.71;75.64;99551.63;5052568;28;20061;-77
2022/10/12 15:20:25;;;;;;;12.18;6.63;;;;;;;17.56;76.75;99544.53;5053947;28;20130;-77
2022/10/12 15:22:51;;;;;;;17.33;6.85;;;;;;;17.45;76.28;99540.59;5053239;28;20158;-77
2022/10/12 15:25:21;;;;;;;14.73;7.00;;;;;;;17.58;77.32;99541.56;5052537;28;20052;-77
2022/10/12 15:27:48;;;;;;;;;;;;;;;17.76;77.75;99558.13;5051025;28;20053;-77
2022/10/12 15:30:15;;;;;;;13.48;7.07;;;;;;;17.58;78.29;99528.66;5046971;28;19927;-77
2022/10/12 15:32:43;;;;;;;15.00;6.95;;;;;;;17.39;78.37;99554.34;5051682;28;20045;-77
2022/10/12 15:35:18;;;;;;;16.92;5.75;;;;;;;17.13;80.90;99536.94;5053599;28;20492;-77
2022/10/12 15:37:45;;;;;;;14.52;7.47;;;;;;;16.88;81.25;99545.94;5053870;28;20049;-77
2022/10/12 15:40:12;;;;;;;17.45;7.55;;;;;;;16.80;82.26;99555.22;5053512;28;20215;-77
2022/10/12 15:42:38;;;;;;;10.30;6.18;;;;;;;16.65;85.08;99538.16;5052432;28;20123;-77
2022/10/12 15:45:16;;;;;;;19.70;6.95;;;;;;;16.60;85.82;99546.19;5053434;28;20571;-77
2022/10/12 15:47:44;;;;;;;11.98;6.63;;;;;;;16.46;87.21;99534.41;5053462;28;20546;-77
2022/10/12 15:50:11;;;;;;;10.15;6.35;;;;;;;16.58;88.31;99551.91;5052265;28;20136;-76
2022/10/12 15:52:37;;;;;;;13.13;6.07;;;;;;;16.50;89.32;99537.56;5053587;28;20053;-76
2022/10/12 15:55:11;;;;;;;12.77;7.28;;;;;;;16.50;89.15;99530.19;5055256;28;20128;-75
2022/10/12 15:57:38;;;;;;;10.98;6.97;;;;;;;16.49;90.46;99525.75;5054816;28;20065;-75
2022/10/12 16:00:05;;;;;;;10.43;6.28;;;;;;;16.42;91.68;99531.25;5053577;28;20052;-76
2022/10/12 16:02:32;;;;;;;9.27;6.65;;;;;;;16.45;92.52;99540.94;5051029;28;20552;-76
2022/10/12 16:05:00;;;;;;;13.25;6.50;;;;;;;16.15;93.32;99511.22;5053200;28;20064;-76
2022/10/12 16:07:27;;;;;;;17.88;7.53;;;;;;;16.19;91.34;99534.44;5053539;28;20120;-77
2022/10/12 16:09:54;;;;;;;18.08;7.78;;;;;;;16.21;92.09;99529.59;5052765;28;20052;-77
2022/10/12 16:12:20;;;;;;;12.73;7.10;;;;;;;16.04;93.66;99531.91;5052014;28;20048;-76
2022/10/12 16:14:47;;;;;;;12.68;6.75;;;;;;;15.84;96.44;99531.94;5052866;28;20085;-77
2022/10/12 16:17:13;;;;;;;19.75;7.20;;;;;;;15.53;97.69;99496.88;5051221;28;20052;-77
2022/10/12 16:19:40;;;;;;;10.52;6.80;;;;;;;15.38;99.59;99511.59;5052578;28;20049;-77
2022/10/12 16:22:09;;;;;;;14.18;7.13;;;;;;;15.50;99.87;99536.50;5052208;28;20557;-76
2022/10/12 16:24:35;;;;;;;12.63;6.90;;;;;;;15.38;100.00;99528.03;5051715;28;20507;-77
2022/10/12 16:27:02;;;;;;;14.05;7.63;;;;;;;15.42;100.00;99549.56;5052337;28;20045;-77
2022/10/12 16:29:29;;;;;;;12.52;6.47;;;;;;;15.02;100.00;99526.47;5052698;28;20515;-76
2022/10/12 16:31:55;;;;;;;14.15;7.90;;;;;;;15.07;100.00;99541.44;5051163;28;20075;-76
2022/10/12 16:34:22;;;;;;;12.43;7.47;;;;;;;15.20;100.00;99558.78;5052091;28;20045;-77
2022/10/12 16:36:48;;;;;;;16.42;7.97;;;;;;;14.93;100.00;99540.53;5052752;28;20845;-76
2022/10/12 16:39:16;;;;;;;17.98;7.82;;;;;;;14.80;100.00;99544.06;5052586;28;20052;-77
2022/10/12 16:41:43;;;;;;;13.38;7.50;;;;;;;14.63;100.00;99538.94;5051074;28;20485;-77
2022/10/12 16:44:09;;;;;;;17.00;7.45;;;;;;;14.64;100.00;99561.66;5051555;28;20465;-77
2022/10/12 16:46:37;;;;;;;17.05;7.28;;;;;;;14.35;100.00;99536.19;5052302;28;20055;-77
2022/10/12 16:49:04;;;;;;;14.55;6.93;;;;;;;14.22;100.00;99556.09;5052255;28;20053;-76
2022/10/12 16:51:30;;;;;;;12.50;7.15;;;;;;;14.17;100.00;99533.97;5052386;28;20047;-77
2022/10/12 16:53:57;;;;;;;13.98;7.03;;;;;;;14.30;100.00;99561.41;5041046;28;20057;-77
2022/10/12 16:56:25;;;;;;;16.13;7.47;;;;;;;13.92;100.00;99530.84;5049816;28;20044;-76
2022/10/12 16:58:51;;;;;;;13.27;7.63;;;;;;;13.88;100.00;99546.78;5048682;28;20500;-77
2022/10/12 17:01:18;;;;;;;16.58;8.52;;;;;;;13.63;100.00;99536.25;5049368;28;20504;-76
2022/10/12 17:03:45;;;;;;;18.08;8.60;;;;;;;13.43;100.00;99522.41;5049324;28;20056;-77
2022/10/12 17:06:11;;;;;;;12.95;7.28;;;;;;;13.60;100.00;99530.34;5049694;28;20499;-77
2022/10/12 17:08:38;;;;;;;15.65;8.20;;;;;;;13.59;100.00;99520.47;5048046;28;20053;-76
2022/10/12 17:11:07;;;;;;;18.58;7.38;;;;;;;13.59;100.00;99525.91;5048902;28;20059;-76
2022/10/12 17:13:36;;;;;;;20.70;8.00;;;;;;;13.58;100.00;99536.00;5047382;28;20041;-77
2022/10/12 17:16:48;;;;;;;24.65;8.35;;;;;;;13.49;100.00;99531.72;5048022;28;20081;-77
2022/10/12 17:18:50;;;;;;;15.50;7.05;;;;;;;13.51;100.00;99517.88;5049330;28;20049;-77
2022/10/12 17:21:17;;;;;;;21.95;9.88;;;;;;;13.42;100.00;99515.25;5047727;28;20055;-77
2022/10/12 17:23:44;;;;;;;17.80;7.72;;;;;;;13.26;100.00;99526.41;5047650;28;20063;-77
2022/10/12 17:26:10;;;;;;;17.30;7.60;;;;;;;13.08;100.00;99524.09;5048954;28;20056;-76
